createdAt,value
2022-10-16T00:01:08.989Z,87.95
2022-10-16T00:03:36.663Z,81.07
2022-10-16T00:06:04.625Z,87.68
2022-10-16T00:08:32.047Z,78.53
2022-10-16T00:11:05.424Z,82.55
2022-10-16T00:13:33.987Z,78.68
2022-10-16T00:16:02.398Z,80.97
2022-10-16T00:18:30.033Z,77.93
2022-10-16T00:21:02.656Z,77.03
2022-10-16T00:23:29.739Z,78.13
2022-10-16T00:25:59.958Z,79.07
2022-10-16T00:28:28.104Z,71.28
2022-10-16T00:30:55.358Z,69.93
2022-10-16T00:33:22.883Z,70.30
2022-10-16T00:35:51.177Z,70.25
2022-10-16T00:38:18.580Z,68.03
2022-10-16T00:40:45.684Z,68.28
2022-10-16T00:43:16.078Z,72.75
2022-10-16T00:45:43.191Z,73.82
2022-10-16T00:48:15.257Z,80.95
2022-10-16T00:50:44.850Z,80.57
2022-10-16T00:53:12.702Z,86.90
2022-10-16T00:55:42.411Z,81.90
2022-10-16T00:58:10.645Z,76.40
2022-10-16T01:00:37.818Z,80.03
2022-10-16T01:03:22.982Z,90.55
2022-10-16T01:05:58.784Z,82.38
2022-10-16T01:08:36.741Z,79.85
2022-10-16T01:11:21.009Z,84.18
2022-10-16T01:13:54.561Z,75.93
2022-10-16T01:16:35.614Z,66.97
2022-10-16T01:19:13.177Z,66.95
2022-10-16T01:21:45.179Z,71.40
2022-10-16T01:24:38.779Z,69.07
2022-10-16T01:27:12.263Z,65.47
2022-10-16T01:29:40.431Z,66.40
2022-10-16T01:32:17.065Z,64.20
2022-10-16T01:34:51.741Z,64.15
2022-10-16T01:37:32.636Z,63.70
2022-10-16T01:40:01.689Z,64.20
2022-10-16T01:42:35.775Z,63.85
2022-10-16T01:45:07.623Z,61.05
2022-10-16T01:47:37.509Z,61.63
2022-10-16T01:50:06.443Z,62.40
2022-10-16T01:52:37.195Z,61.17
2022-10-16T01:55:07.178Z,60.70
2022-10-16T01:57:38.522Z,61.55
2022-10-16T02:00:09.976Z,64.78
2022-10-16T02:02:43.379Z,62.28
2022-10-16T02:05:18.037Z,66.72
2022-10-16T02:10:12.482Z,64.18
2022-10-16T02:12:45.463Z,66.32
2022-10-16T02:15:12.764Z,64.32
2022-10-16T02:17:40.258Z,66.70
2022-10-16T02:20:07.625Z,65.88
2022-10-16T02:22:40.485Z,62.90
2022-10-16T02:25:11.807Z,63.40
2022-10-16T02:27:45.255Z,68.63
2022-10-16T02:30:28.367Z,60.00
2022-10-16T02:32:57.266Z,64.88
2022-10-16T02:35:25.558Z,71.72
2022-10-16T02:37:53.415Z,62.60
2022-10-16T02:40:24.387Z,60.08
2022-10-16T02:42:54.355Z,63.63
2022-10-16T02:45:22.158Z,62.30
2022-10-16T02:47:49.671Z,62.40
2022-10-16T02:50:17.130Z,61.38
2022-10-16T02:52:44.291Z,63.45
2022-10-16T02:55:11.418Z,63.90
2022-10-16T02:57:39.648Z,64.53
2022-10-16T03:00:08.415Z,60.40
2022-10-16T03:02:35.562Z,64.15
2022-10-16T03:05:02.669Z,69.00
2022-10-16T03:07:29.802Z,63.47
2022-10-16T03:09:56.861Z,65.93
2022-10-16T03:12:24.002Z,64.40
2022-10-16T03:14:51.136Z,66.75
2022-10-16T03:17:18.506Z,63.17
2022-10-16T03:19:45.871Z,62.35
2022-10-16T03:22:13.005Z,64.47
2022-10-16T03:24:40.340Z,58.22
2022-10-16T03:27:07.868Z,63.00
2022-10-16T03:29:35.242Z,65.22
2022-10-16T03:32:02.810Z,61.15
2022-10-16T03:34:29.904Z,62.63
2022-10-16T03:36:57.289Z,60.05
2022-10-16T03:39:24.483Z,66.95
2022-10-16T03:41:51.558Z,68.13
2022-10-16T03:44:18.710Z,64.18
2022-10-16T03:46:45.746Z,70.10
2022-10-16T03:49:13.030Z,61.50
2022-10-16T03:51:40.191Z,70.18
2022-10-16T03:54:07.328Z,68.82
2022-10-16T03:56:34.462Z,69.60
2022-10-16T03:59:01.552Z,65.28
2022-10-16T04:01:28.688Z,63.83
2022-10-16T04:03:55.820Z,64.07
2022-10-16T04:06:23.361Z,67.03
2022-10-16T04:08:50.371Z,73.18
2022-10-16T04:11:17.579Z,73.47
2022-10-16T04:13:44.891Z,67.55
2022-10-16T04:16:12.057Z,71.97
2022-10-16T04:18:39.148Z,69.63
2022-10-16T04:21:07.426Z,66.43
2022-10-16T04:23:35.072Z,74.65
2022-10-16T04:26:02.321Z,69.53
2022-10-16T04:28:29.697Z,71.07
2022-10-16T04:30:56.782Z,67.53
2022-10-16T04:33:23.994Z,72.30
2022-10-16T04:35:58.491Z,66.63
2022-10-16T04:40:53.718Z,70.63
2022-10-16T04:43:21.383Z,74.10
2022-10-16T04:45:48.639Z,67.13
2022-10-16T04:48:16.107Z,72.40
2022-10-16T04:50:43.571Z,75.18
2022-10-16T04:53:10.719Z,63.95
2022-10-16T04:55:38.510Z,69.35
2022-10-16T04:58:06.301Z,67.68
2022-10-16T05:00:33.859Z,67.05
2022-10-16T05:03:01.915Z,69.60
2022-10-16T05:05:29.466Z,71.20
2022-10-16T05:07:56.539Z,65.03
2022-10-16T05:10:23.711Z,69.43
2022-10-16T05:12:50.954Z,63.20
2022-10-16T05:15:18.510Z,69.53
2022-10-16T05:17:45.882Z,67.32
2022-10-16T05:20:13.542Z,85.95
2022-10-16T05:22:40.704Z,101.63
2022-10-16T05:25:07.969Z,76.60
2022-10-16T05:27:35.518Z,74.63
2022-10-16T05:30:02.966Z,83.15
2022-10-16T05:32:30.141Z,76.95
2022-10-16T05:34:57.155Z,91.15
2022-10-16T05:37:24.778Z,81.53
2022-10-16T05:39:52.118Z,82.10
2022-10-16T05:42:20.037Z,85.70
2022-10-16T05:44:47.605Z,81.85
2022-10-16T05:47:15.427Z,77.13
2022-10-16T05:49:42.592Z,72.68
2022-10-16T05:52:09.881Z,77.00
2022-10-16T05:54:37.029Z,72.10
2022-10-16T05:57:06.671Z,77.60
2022-10-16T05:59:33.959Z,84.93
2022-10-16T06:02:01.636Z,77.60
2022-10-16T06:04:29.109Z,73.82
2022-10-16T06:07:01.606Z,73.00
2022-10-16T06:09:28.878Z,67.15
2022-10-16T06:11:56.130Z,61.20
2022-10-16T06:14:23.442Z,67.88
2022-10-16T06:16:50.495Z,53.67
2022-10-16T06:19:18.627Z,60.45
2022-10-16T06:21:45.835Z,52.67
2022-10-16T06:24:13.170Z,50.25
2022-10-16T06:26:40.421Z,53.00
2022-10-16T06:29:09.998Z,53.55
2022-10-16T06:31:37.226Z,52.22
2022-10-16T06:34:06.740Z,69.63
2022-10-16T06:36:33.910Z,68.10
2022-10-16T06:39:03.924Z,118.75
2022-10-16T06:41:32.511Z,70.72
2022-10-16T06:44:10.072Z,114.35
2022-10-16T06:46:37.612Z,57.28
2022-10-16T06:49:04.718Z,112.00
2022-10-16T06:51:36.816Z,56.95
2022-10-16T06:54:06.442Z,71.55
2022-10-16T06:56:34.966Z,68.25
2022-10-16T06:59:02.447Z,61.85
2022-10-16T07:01:30.551Z,64.20
2022-10-16T07:03:57.939Z,59.50
2022-10-16T07:06:26.936Z,57.70
2022-10-16T07:08:54.701Z,56.70
2022-10-16T07:11:24.349Z,61.42
2022-10-16T07:13:55.867Z,74.65
2022-10-16T07:16:28.282Z,53.85
2022-10-16T07:19:00.632Z,50.38
2022-10-16T07:21:32.534Z,64.53
2022-10-16T07:24:02.452Z,64.13
2022-10-16T07:26:32.197Z,48.92
2022-10-16T07:28:59.733Z,65.43
2022-10-16T07:31:27.459Z,50.75
2022-10-16T07:33:55.302Z,52.22
2022-10-16T07:36:22.882Z,42.80
2022-10-16T07:38:51.858Z,65.60
2022-10-16T07:41:21.434Z,56.28
2022-10-16T07:43:50.858Z,36.58
2022-10-16T07:46:19.441Z,40.92
2022-10-16T07:48:48.312Z,37.72
2022-10-16T07:51:21.696Z,40.30
2022-10-16T07:53:50.998Z,46.70
2022-10-16T07:56:19.359Z,67.25
2022-10-16T07:58:46.976Z,48.28
2022-10-16T08:01:16.334Z,60.30
2022-10-16T08:03:45.035Z,42.92
2022-10-16T08:06:12.571Z,37.63
2022-10-16T08:08:40.441Z,38.38
2022-10-16T08:11:08.261Z,40.47
2022-10-16T08:13:36.763Z,42.67
2022-10-16T08:16:09.845Z,39.70
2022-10-16T08:18:38.945Z,36.95
2022-10-16T08:21:21.672Z,36.20
2022-10-16T08:23:55.086Z,39.75
2022-10-16T08:26:27.461Z,33.70
2022-10-16T08:28:55.590Z,35.13
2022-10-16T08:31:23.957Z,36.67
2022-10-16T08:33:51.283Z,42.13
2022-10-16T08:36:18.380Z,43.28
2022-10-16T08:38:50.071Z,42.00
2022-10-16T08:41:50.772Z,38.83
2022-10-16T08:44:18.862Z,35.55
2022-10-16T08:46:54.718Z,34.67
2022-10-16T08:49:22.154Z,36.10
2022-10-16T08:51:50.591Z,32.30
2022-10-16T08:54:25.155Z,34.42
2022-10-16T08:56:52.478Z,34.00
2022-10-16T08:59:20.363Z,36.60
2022-10-16T09:01:53.498Z,35.47
2022-10-16T09:04:54.202Z,35.03
2022-10-16T09:07:30.771Z,34.92
2022-10-16T09:09:59.856Z,33.10
2022-10-16T09:12:46.941Z,36.03
2022-10-16T09:15:22.248Z,35.17
2022-10-16T09:17:55.357Z,36.10
2022-10-16T09:20:43.428Z,39.83
2022-10-16T09:23:20.918Z,40.65
2022-10-16T09:25:50.683Z,42.08
2022-10-16T09:28:21.913Z,43.38
2022-10-16T09:30:52.047Z,38.40
2022-10-16T09:33:22.248Z,42.47
2022-10-16T09:35:54.123Z,43.72
2022-10-16T09:38:23.930Z,43.50
2022-10-16T09:40:58.863Z,41.00
2022-10-16T09:43:40.637Z,39.00
2022-10-16T09:46:23.246Z,39.20
2022-10-16T09:48:52.390Z,42.28
2022-10-16T09:51:25.091Z,46.05
2022-10-16T09:53:58.393Z,40.58
2022-10-16T09:56:28.073Z,37.38
2022-10-16T09:58:58.358Z,42.03
2022-10-16T10:01:47.767Z,39.83
2022-10-16T10:04:15.789Z,37.72
2022-10-16T10:06:49.957Z,42.58
2022-10-16T10:09:21.138Z,36.22
2022-10-16T10:11:52.494Z,36.20
2022-10-16T10:14:31.914Z,39.65
2022-10-16T10:17:06.566Z,36.38
2022-10-16T10:19:44.043Z,37.28
2022-10-16T10:22:43.490Z,36.35
2022-10-16T10:25:20.289Z,37.80
2022-10-16T10:28:11.727Z,37.92
2022-10-16T10:30:51.430Z,39.95
2022-10-16T10:33:34.358Z,41.08
2022-10-16T10:36:09.073Z,37.97
2022-10-16T10:38:48.816Z,40.67
2022-10-16T10:41:36.222Z,47.33
2022-10-16T10:44:24.918Z,36.95
2022-10-16T10:46:58.366Z,42.33
2022-10-16T10:49:51.130Z,45.05
2022-10-16T10:52:40.989Z,42.15
2022-10-16T10:55:44.329Z,41.92
2022-10-16T10:58:38.781Z,46.75
2022-10-16T11:01:12.789Z,40.30
2022-10-16T11:04:03.320Z,41.17
2022-10-16T11:06:52.261Z,42.10
2022-10-16T11:09:25.891Z,45.45
2022-10-16T11:12:02.650Z,44.20
2022-10-16T11:14:37.370Z,42.50
2022-10-16T11:17:17.718Z,41.70
2022-10-16T11:19:55.178Z,44.28
2022-10-16T11:22:35.459Z,38.75
2022-10-16T11:25:27.155Z,42.80
2022-10-16T11:28:02.595Z,44.67
2022-10-16T11:30:34.552Z,44.85
2022-10-16T11:33:09.417Z,43.50
2022-10-16T11:35:44.710Z,41.30
2022-10-16T11:38:35.621Z,43.08
2022-10-16T11:41:22.656Z,39.00
2022-10-16T11:44:01.136Z,37.85
2022-10-16T11:46:31.206Z,39.00
2022-10-16T11:49:10.528Z,39.10
2022-10-16T11:51:43.231Z,33.13
2022-10-16T11:54:34.146Z,33.53
2022-10-16T11:57:08.535Z,36.55
2022-10-16T12:02:43.062Z,36.28
2022-10-16T12:05:18.766Z,38.92
2022-10-16T12:07:56.498Z,34.03
2022-10-16T12:10:29.280Z,31.55
2022-10-16T12:12:57.927Z,33.65
2022-10-16T12:15:40.892Z,32.08
2022-10-16T12:18:29.856Z,35.88
2022-10-16T12:21:07.008Z,34.60
2022-10-16T12:23:55.352Z,36.65
2022-10-16T12:26:32.778Z,32.55
2022-10-16T12:29:34.015Z,35.67
2022-10-16T12:32:02.047Z,34.67
2022-10-16T12:34:33.358Z,33.97
2022-10-16T12:37:10.644Z,34.33
2022-10-16T12:39:39.080Z,37.35
2022-10-16T12:42:30.395Z,34.00
2022-10-16T12:44:57.891Z,32.90
2022-10-16T12:47:38.928Z,36.28
2022-10-16T12:50:26.015Z,37.90
2022-10-16T12:52:53.232Z,38.03
2022-10-16T12:55:22.813Z,35.85
2022-10-16T12:58:09.847Z,36.67
2022-10-16T13:00:46.746Z,38.33
2022-10-16T13:03:49.517Z,36.58
2022-10-16T13:06:40.591Z,35.38
2022-10-16T13:09:36.447Z,38.33
2022-10-16T13:12:14.623Z,37.90
2022-10-16T13:15:10.641Z,39.03
2022-10-16T13:18:01.034Z,38.85
2022-10-16T13:20:36.347Z,38.88
2022-10-16T13:23:28.250Z,36.35
2022-10-16T13:26:22.715Z,38.90
2022-10-16T13:28:50.485Z,43.25
2022-10-16T13:31:26.487Z,41.05
2022-10-16T13:33:57.890Z,37.35
2022-10-16T13:36:29.170Z,37.65
2022-10-16T13:39:21.943Z,35.92
2022-10-16T13:42:16.219Z,34.13
2022-10-16T13:44:49.578Z,33.53
2022-10-16T13:47:20.456Z,35.80
2022-10-16T13:49:48.420Z,36.08
2022-10-16T13:52:21.023Z,36.15
2022-10-16T13:54:49.353Z,41.47
2022-10-16T13:57:26.837Z,34.25
2022-10-16T13:59:56.441Z,35.13
2022-10-16T14:02:32.343Z,35.53
2022-10-16T14:05:00.147Z,38.13
2022-10-16T14:07:30.246Z,39.53
2022-10-16T14:10:02.237Z,36.08
2022-10-16T14:12:29.661Z,44.58
2022-10-16T14:14:59.621Z,36.22
2022-10-16T14:17:36.775Z,37.05
2022-10-16T14:20:07.527Z,39.72
2022-10-16T14:22:46.559Z,39.28
2022-10-16T14:25:28.083Z,38.88
2022-10-16T14:28:03.427Z,39.33
2022-10-16T14:30:33.776Z,42.97
2022-10-16T14:33:05.868Z,43.38
2022-10-16T14:35:34.222Z,42.10
2022-10-16T14:38:03.116Z,39.88
2022-10-16T14:40:34.274Z,36.10
2022-10-16T14:43:04.323Z,38.05
2022-10-16T14:45:34.855Z,40.97
2022-10-16T14:48:06.675Z,35.42
2022-10-16T14:50:35.519Z,39.65
2022-10-16T14:53:02.593Z,38.05
2022-10-16T14:55:30.934Z,35.55
2022-10-16T14:58:02.562Z,41.78
2022-10-16T15:00:30.417Z,37.25
2022-10-16T15:02:59.191Z,37.90
2022-10-16T15:05:28.946Z,38.65
2022-10-16T15:07:56.610Z,41.33
2022-10-16T15:10:26.158Z,36.78
2022-10-16T15:12:53.591Z,35.88
2022-10-16T15:15:25.207Z,38.28
2022-10-16T15:17:54.675Z,40.72
2022-10-16T15:20:21.848Z,37.17
2022-10-16T15:22:49.003Z,37.50
2022-10-16T15:25:38.217Z,40.97
2022-10-16T15:28:06.264Z,44.38
2022-10-16T15:30:33.875Z,36.53
2022-10-16T15:33:01.076Z,38.80
2022-10-16T15:35:28.262Z,35.75
2022-10-16T15:37:55.700Z,40.70
2022-10-16T15:40:24.018Z,38.78
2022-10-16T15:42:51.442Z,41.30
2022-10-16T15:45:20.152Z,40.45
2022-10-16T15:47:47.401Z,39.97
2022-10-16T15:50:16.069Z,44.78
2022-10-16T15:52:43.571Z,39.33
2022-10-16T15:55:13.104Z,38.63
2022-10-16T15:57:42.399Z,39.25
2022-10-16T16:00:13.526Z,40.53
2022-10-16T16:02:41.796Z,45.88
2022-10-16T16:05:10.394Z,43.97
2022-10-16T16:07:38.790Z,46.08
2022-10-16T16:10:08.932Z,45.72
2022-10-16T16:12:36.431Z,45.78
2022-10-16T16:15:05.786Z,43.85
2022-10-16T16:17:34.279Z,44.20
2022-10-16T16:20:01.946Z,43.55
2022-10-16T16:22:29.910Z,46.42
2022-10-16T16:24:57.355Z,48.78
2022-10-16T16:27:26.513Z,46.47
2022-10-16T16:29:54.442Z,52.85
2022-10-16T16:32:21.597Z,48.40
2022-10-16T16:34:48.923Z,45.97
2022-10-16T16:37:16.338Z,48.95
2022-10-16T16:39:43.439Z,52.20
2022-10-16T16:42:12.669Z,50.67
2022-10-16T16:44:40.618Z,51.45
2022-10-16T16:47:08.160Z,54.28
2022-10-16T16:49:35.315Z,51.58
2022-10-16T16:52:08.015Z,51.63
2022-10-16T16:54:35.254Z,51.75
2022-10-16T16:57:04.260Z,52.00
2022-10-16T16:59:36.721Z,46.83
2022-10-16T17:02:05.165Z,52.67
2022-10-16T17:04:33.977Z,57.75
2022-10-16T17:07:01.377Z,56.72
2022-10-16T17:09:32.048Z,51.42
2022-10-16T17:12:00.602Z,54.55
2022-10-16T17:14:28.044Z,59.15
2022-10-16T17:17:02.501Z,55.50
2022-10-16T17:19:29.593Z,55.67
2022-10-16T17:24:34.278Z,63.65
2022-10-16T17:27:01.730Z,64.78
2022-10-16T17:29:28.895Z,60.47
2022-10-16T17:31:59.469Z,61.92
2022-10-16T17:34:30.877Z,56.95
2022-10-16T17:36:58.350Z,55.72
2022-10-16T17:39:25.587Z,51.75
2022-10-16T17:41:53.558Z,56.67
2022-10-16T17:44:20.828Z,62.92
2022-10-16T17:46:51.111Z,57.05
2022-10-16T17:49:19.205Z,58.97
2022-10-16T17:51:50.814Z,61.38
2022-10-16T17:54:19.390Z,60.17
2022-10-16T17:56:49.186Z,71.22
2022-10-16T17:59:17.982Z,63.97
2022-10-16T18:01:46.472Z,60.45
2022-10-16T18:04:16.224Z,59.72
2022-10-16T18:06:46.461Z,56.17
2022-10-16T18:09:18.215Z,64.78
2022-10-16T18:11:47.133Z,58.63
2022-10-16T18:14:24.487Z,54.58
2022-10-16T18:17:07.442Z,59.40
2022-10-16T18:19:37.676Z,55.67
2022-10-16T18:22:08.223Z,57.40
2022-10-16T18:24:36.516Z,58.22
2022-10-16T18:27:04.132Z,59.67
2022-10-16T18:29:31.359Z,59.50
2022-10-16T18:31:58.495Z,56.75
2022-10-16T18:34:28.552Z,57.08
2022-10-16T18:36:56.631Z,57.97
2022-10-16T18:39:28.454Z,58.63
2022-10-16T18:42:01.457Z,59.05
2022-10-16T18:44:31.472Z,62.37
2022-10-16T18:46:59.262Z,58.75
2022-10-16T18:49:26.512Z,58.45
2022-10-16T18:51:56.849Z,67.00
2022-10-16T18:54:25.178Z,60.65
2022-10-16T18:56:53.324Z,61.47
2022-10-16T18:59:21.645Z,61.08
2022-10-16T19:01:50.733Z,61.47
2022-10-16T19:04:18.194Z,57.83
2022-10-16T19:06:48.750Z,59.40
2022-10-16T19:09:18.208Z,57.53
2022-10-16T19:11:45.666Z,65.15
2022-10-16T19:14:14.634Z,62.30
2022-10-16T19:16:43.225Z,65.90
2022-10-16T19:19:14.606Z,62.70
2022-10-16T19:21:44.047Z,67.45
2022-10-16T19:24:14.158Z,61.28
2022-10-16T19:26:42.242Z,65.90
2022-10-16T19:29:09.986Z,69.30
2022-10-16T19:31:37.757Z,66.53
2022-10-16T19:34:06.839Z,67.50
2022-10-16T19:36:36.486Z,71.35
2022-10-16T19:39:08.113Z,68.72
2022-10-16T19:41:37.087Z,69.50
2022-10-16T19:44:07.570Z,68.13
2022-10-16T19:46:36.131Z,66.00
2022-10-16T19:49:13.043Z,63.95
2022-10-16T19:51:41.226Z,70.18
2022-10-16T19:54:12.578Z,68.10
2022-10-16T19:56:40.153Z,63.00
2022-10-16T19:59:13.564Z,67.82
2022-10-16T20:01:42.032Z,66.05
2022-10-16T20:04:09.530Z,66.32
2022-10-16T20:06:36.916Z,61.00
2022-10-16T20:09:06.364Z,60.15
2022-10-16T20:11:35.694Z,62.47
2022-10-16T20:14:04.781Z,71.13
2022-10-16T20:16:33.821Z,69.95
2022-10-16T20:19:01.464Z,74.85
2022-10-16T20:21:31.739Z,72.10
2022-10-16T20:24:01.863Z,74.05
2022-10-16T20:26:29.214Z,70.47
2022-10-16T20:28:56.540Z,67.43
2022-10-16T20:31:27.491Z,63.03
2022-10-16T20:33:56.323Z,66.28
2022-10-16T20:36:27.353Z,72.65
2022-10-16T20:38:54.446Z,68.20
2022-10-16T20:41:21.902Z,62.70
2022-10-16T20:43:51.259Z,66.38
2022-10-16T20:46:22.147Z,62.50
2022-10-16T20:48:49.621Z,70.93
2022-10-16T20:51:23.274Z,70.43
2022-10-16T20:53:56.631Z,71.33
2022-10-16T20:56:25.154Z,71.18
2022-10-16T20:58:53.430Z,68.18
2022-10-16T21:01:23.193Z,62.88
2022-10-16T21:03:54.475Z,66.38
2022-10-16T21:06:22.120Z,76.18
2022-10-16T21:08:49.368Z,69.90
2022-10-16T21:11:19.907Z,64.90
2022-10-16T21:13:47.188Z,62.63
2022-10-16T21:16:15.490Z,66.93
2022-10-16T21:18:44.701Z,60.42
2022-10-16T21:21:21.506Z,63.97
2022-10-16T21:23:49.753Z,66.85
2022-10-16T21:26:18.375Z,62.15
2022-10-16T21:28:45.640Z,67.57
2022-10-16T21:31:14.901Z,61.42
2022-10-16T21:33:42.549Z,59.70
2022-10-16T21:36:15.194Z,54.20
2022-10-16T21:38:42.474Z,62.15
2022-10-16T21:41:16.485Z,62.58
2022-10-16T21:43:44.189Z,60.03
2022-10-16T21:46:11.466Z,53.00
2022-10-16T21:48:39.560Z,51.45
2022-10-16T21:51:06.817Z,55.15
2022-10-16T21:53:33.840Z,58.75
2022-10-16T21:56:01.110Z,56.90
2022-10-16T21:58:30.460Z,57.03
2022-10-16T22:00:57.563Z,48.85
2022-10-16T22:03:24.718Z,53.25
2022-10-16T22:05:52.078Z,49.63
2022-10-16T22:08:19.438Z,52.45
2022-10-16T22:10:46.959Z,52.83
2022-10-16T22:13:13.974Z,60.67
2022-10-16T22:15:49.095Z,54.38
2022-10-16T22:18:16.179Z,55.25
2022-10-16T22:20:46.921Z,60.88
2022-10-16T22:23:14.486Z,60.45
2022-10-16T22:25:42.395Z,53.25
2022-10-16T22:28:09.848Z,51.05
2022-10-16T22:30:38.484Z,53.75
2022-10-16T22:33:06.472Z,54.75
2022-10-16T22:35:41.398Z,49.65
2022-10-16T22:38:10.230Z,53.20
2022-10-16T22:40:38.438Z,52.30
2022-10-16T22:43:07.155Z,46.80
2022-10-16T22:45:36.121Z,40.40
2022-10-16T22:48:04.305Z,36.13
2022-10-16T22:50:32.454Z,43.63
2022-10-16T22:52:59.544Z,51.58
2022-10-16T22:55:26.958Z,56.50
2022-10-16T22:57:56.744Z,55.97
2022-10-16T23:00:24.259Z,56.50
2022-10-16T23:02:51.423Z,52.63
2022-10-16T23:05:18.568Z,53.65
2022-10-16T23:07:46.555Z,53.88
2022-10-16T23:10:13.772Z,54.38
2022-10-16T23:12:41.082Z,54.20
2022-10-16T23:15:08.486Z,51.17
2022-10-16T23:17:35.558Z,51.17
2022-10-16T23:20:02.807Z,51.75
2022-10-16T23:22:30.095Z,47.88
2022-10-16T23:24:57.442Z,48.90
2022-10-16T23:27:24.513Z,52.63
2022-10-16T23:29:51.841Z,48.80
2022-10-16T23:32:18.922Z,48.88
2022-10-16T23:34:47.697Z,41.03
2022-10-16T23:37:14.802Z,42.85
2022-10-16T23:39:41.915Z,48.08
2022-10-16T23:42:09.161Z,46.55
2022-10-16T23:44:36.306Z,46.75
2022-10-16T23:47:03.988Z,58.10
2022-10-16T23:49:31.086Z,60.63
2022-10-16T23:51:58.070Z,56.92
2022-10-16T23:54:25.189Z,56.58
2022-10-16T23:56:52.343Z,54.80
2022-10-16T23:59:19.531Z,53.72
